Time;durP1;ratioP1;P1;durP2;ratioP2;P2;SDS_P1;SDS_P2;PMS_P1;PMS_P2;Temp;Humidity;BMP_temperature;BMP_pressure;BME280_temperature;BME280_humidity;BME280_pressure;Samples;Min_cycle;Max_cycle;Signal;HPM_P1;HPM_P2
2021/08/31 03:12:21;;;;;;;26.83;22.17;;;15.60;99.90;;;;;;5057402;28;21086;-72
2021/08/31 03:14:47;;;;;;;29.40;25.00;;;15.70;99.90;;;;;;5066106;28;20413;-73
2021/08/31 03:17:12;;;;;;;28.63;24.33;;;15.70;99.90;;;;;;5073224;28;20178;-73
2021/08/31 03:19:39;;;;;;;35.53;28.23;;;15.70;99.90;;;;;;5056710;28;20174;-73
2021/08/31 03:22:05;;;;;;;33.37;26.73;;;15.70;99.90;;;;;;5077264;28;20190;-73
2021/08/31 03:24:32;;;;;;;32.10;25.20;;;15.70;99.90;;;;;;5075193;28;20428;-73
2021/08/31 03:26:57;;;;;;;35.03;27.37;;;15.70;99.90;;;;;;5075482;28;20504;-73
2021/08/31 03:29:23;;;;;;;32.40;26.10;;;15.70;99.90;;;;;;5074272;28;20413;-73
2021/08/31 03:31:49;;;;;;;33.67;27.10;;;15.70;99.90;;;;;;5075748;28;20194;-73
2021/08/31 03:34:15;;;;;;;31.77;26.17;;;15.70;99.90;;;;;;5064078;28;20178;-73
2021/08/31 03:36:41;;;;;;;33.17;27.37;;;15.70;99.90;;;;;;5057833;28;20261;-73
2021/08/31 03:39:07;;;;;;;33.30;27.00;;;15.70;99.90;;;;;;5056400;28;20282;-72
2021/08/31 03:41:32;;;;;;;32.87;27.00;;;15.70;99.90;;;;;;5057116;28;20432;-73
2021/08/31 03:43:58;;;;;;;31.13;25.93;;;15.70;99.90;;;;;;5057921;28;20418;-73
2021/08/31 03:46:24;;;;;;;38.23;27.67;;;15.60;99.90;;;;;;5057778;28;20547;-73
2021/08/31 03:48:49;;;;;;;32.20;24.27;;;15.70;99.90;;;;;;5038010;28;20261;-72
2021/08/31 03:51:15;;;;;;;32.70;26.73;;;15.70;99.90;;;;;;5038299;28;20194;-73
2021/08/31 03:53:41;;;;;;;30.40;25.50;;;15.80;99.90;;;;;;5055580;28;20180;-72
2021/08/31 03:56:06;;;;;;;36.93;28.60;;;15.80;99.90;;;;;;5055380;28;20548;-73
2021/08/31 03:58:32;;;;;;;33.50;26.80;;;15.60;99.90;;;;;;5055652;28;20412;-73
2021/08/31 04:00:58;;;;;;;31.60;26.53;;;15.70;99.90;;;;;;5038103;28;20636;-73
2021/08/31 04:03:23;;;;;;;36.37;27.20;;;15.70;99.90;;;;;;5055962;28;20182;-73
2021/08/31 04:05:49;;;;;;;31.53;25.50;;;15.70;99.90;;;;;;5055236;28;20655;-73
2021/08/31 04:08:14;;;;;;;31.40;26.07;;;15.70;99.90;;;;;;5055960;28;20201;-73
2021/08/31 04:10:40;;;;;;;32.67;26.70;;;15.70;99.90;;;;;;5037531;28;20225;-73
2021/08/31 04:13:07;;;;;;;34.77;27.30;;;15.70;99.90;;;;;;5037641;28;20188;-72
2021/08/31 04:15:33;;;;;;;34.10;26.50;;;15.80;99.90;;;;;;5055680;28;20170;-72
2021/08/31 04:17:58;;;;;;;32.80;25.47;;;15.80;99.90;;;;;;5055486;28;20508;-73
2021/08/31 04:20:24;;;;;;;33.20;26.70;;;15.80;99.90;;;;;;5055247;28;20424;-73
2021/08/31 04:22:49;;;;;;;32.10;27.27;;;15.90;99.90;;;;;;5056109;28;20192;-72
2021/08/31 04:25:15;;;;;;;34.13;27.70;;;15.90;99.90;;;;;;5055280;28;20174;-73
2021/08/31 04:27:40;;;;;;;35.43;26.20;;;15.90;99.90;;;;;;5054886;28;20198;-73
2021/08/31 04:30:06;;;;;;;37.33;29.00;;;15.90;99.90;;;;;;5055048;28;20193;-73
2021/08/31 04:32:32;;;;;;;29.93;26.03;;;15.90;99.90;;;;;;5055235;28;20692;-73
2021/08/31 04:35:02;;;;;;;34.93;28.00;;;15.80;99.90;;;;;;5054596;28;20166;-73
2021/08/31 04:37:28;;;;;;;34.30;28.47;;;15.70;99.90;;;;;;5055144;28;20582;-73
2021/08/31 04:39:54;;;;;;;34.30;28.93;;;15.60;99.90;;;;;;5054502;28;20448;-73
2021/08/31 04:42:19;;;;;;;37.60;29.50;;;15.60;99.90;;;;;;5054512;28;20178;-73
2021/08/31 04:44:45;;;;;;;38.90;28.10;;;15.70;99.90;;;;;;5054942;28;20697;-72
2021/08/31 04:47:10;;;;;;;33.27;25.90;;;15.70;99.90;;;;;;5054875;28;20662;-72
2021/08/31 04:49:36;;;;;;;37.20;29.03;;;15.70;99.90;;;;;;5054643;28;20650;-72
2021/08/31 04:52:01;;;;;;;37.43;27.03;;;15.80;99.90;;;;;;5054306;28;20206;-73
2021/08/31 04:54:27;;;;;;;37.63;27.90;;;15.80;99.90;;;;;;5054596;28;20177;-73
2021/08/31 04:56:52;;;;;;;38.67;28.27;;;15.80;99.90;;;;;;5054830;28;20182;-73
2021/08/31 04:59:19;;;;;;;35.33;28.23;;;15.80;99.90;;;;;;5054216;28;20665;-72
2021/08/31 05:01:44;;;;;;;35.33;28.53;;;15.80;99.90;;;;;;5054533;28;20190;-73
2021/08/31 05:04:11;;;;;;;34.10;26.43;;;15.80;99.90;;;;;;5054593;28;20497;-73
2021/08/31 05:06:36;;;;;;;34.70;28.03;;;15.80;99.90;;;;;;5054529;28;20205;-73
2021/08/31 05:09:02;;;;;;;33.57;27.00;;;15.80;99.90;;;;;;5054610;28;20921;-73
2021/08/31 05:11:28;;;;;;;39.20;27.43;;;15.70;99.90;;;;;;5053979;28;20205;-73
2021/08/31 05:13:54;;;;;;;38.97;28.33;;;15.70;99.90;;;;;;5054240;28;20174;-73
2021/08/31 05:16:20;;;;;;;37.40;28.40;;;15.70;99.90;;;;;;5036234;28;20960;-73
2021/08/31 05:18:46;;;;;;;41.27;27.70;;;15.70;99.90;;;;;;5054130;28;20190;-73
2021/08/31 05:21:11;;;;;;;33.87;26.90;;;15.60;99.90;;;;;;5036620;28;20817;-72
2021/08/31 05:23:37;;;;;;;35.73;27.67;;;15.70;99.90;;;;;;5036451;28;20169;-72
2021/08/31 05:26:03;;;;;;;33.00;26.67;;;15.80;99.90;;;;;;5054194;28;20348;-72
2021/08/31 05:28:29;;;;;;;34.00;26.30;;;15.80;99.90;;;;;;5054542;28;20171;-72
2021/08/31 05:30:54;;;;;;;37.07;26.57;;;15.90;99.90;;;;;;5047390;28;20464;-72
2021/08/31 05:33:20;;;;;;;36.30;29.37;;;15.90;99.90;;;;;;5053171;28;20253;-72
2021/08/31 05:35:45;;;;;;;38.00;27.30;;;16.00;99.90;;;;;;5054344;28;20166;-72
2021/08/31 05:38:11;;;;;;;39.77;28.33;;;16.00;99.90;;;;;;5036512;28;20184;-72
2021/08/31 05:40:38;;;;;;;37.77;27.80;;;16.00;99.90;;;;;;5054559;28;20202;-72
2021/08/31 05:43:03;;;;;;;35.07;27.47;;;16.10;99.90;;;;;;5053631;28;20224;-72
2021/08/31 05:45:33;;;;;;;38.80;27.00;;;16.10;99.90;;;;;;5052936;28;20831;-72
2021/08/31 05:47:59;;;;;;;38.97;27.57;;;16.10;99.90;;;;;;5053630;28;20220;-73
2021/08/31 05:50:25;;;;;;;36.97;28.50;;;16.10;99.90;;;;;;5036369;28;20451;-72
2021/08/31 05:52:51;;;;;;;33.43;27.80;;;16.10;99.90;;;;;;5053930;28;20413;-71
2021/08/31 05:55:17;;;;;;;35.03;26.43;;;16.10;99.90;;;;;;5053761;28;20401;-72
2021/08/31 05:57:43;;;;;;;33.07;26.40;;;16.00;99.90;;;;;;5053325;28;20174;-72
2021/08/31 06:00:10;;;;;;;34.60;26.50;;;15.90;99.90;;;;;;5035393;28;20543;-72
2021/08/31 06:02:38;;;;;;;37.60;28.03;;;15.80;99.90;;;;;;5053497;28;20174;-72
2021/08/31 06:05:04;;;;;;;32.60;26.90;;;15.80;99.90;;;;;;5053336;28;20421;-72
2021/08/31 06:07:34;;;;;;;32.70;25.63;;;15.80;99.90;;;;;;5053949;28;20521;-72
2021/08/31 06:10:00;;;;;;;31.57;24.90;;;15.90;99.90;;;;;;5053964;28;20770;-72
2021/08/31 06:12:25;;;;;;;35.50;24.73;;;16.00;99.90;;;;;;5046945;28;20462;-72
2021/08/31 06:14:51;;;;;;;35.30;25.73;;;16.00;99.90;;;;;;5041708;28;20852;-73
2021/08/31 06:17:19;;;;;;;34.10;26.00;;;16.00;99.90;;;;;;5048580;28;20185;-73
2021/08/31 06:19:44;;;;;;;32.38;28.70;;;16.00;99.90;;;;;;5043593;28;20421;-72
2021/08/31 06:22:10;;;;;;;35.73;26.03;;;16.10;99.90;;;;;;5049243;28;20741;-73
2021/08/31 06:24:35;;;;;;;37.33;27.35;;;16.10;99.90;;;;;;5047431;28;20408;-72
2021/08/31 06:27:01;;;;;;;34.13;26.67;;;16.20;99.90;;;;;;5046432;28;20208;-72
2021/08/31 06:29:26;;;;;;;35.03;25.73;;;16.20;99.90;;;;;;5046235;28;20185;-71
2021/08/31 06:31:52;;;;;;;33.43;25.73;;;16.20;99.90;;;;;;5038114;28;20560;-73
2021/08/31 06:34:18;;;;;;;33.70;25.83;;;16.10;99.90;;;;;;5050585;28;20185;-73
2021/08/31 06:36:44;;;;;;;33.37;25.97;;;16.10;99.90;;;;;;5053751;28;20182;-73
2021/08/31 06:39:09;;;;;;;33.10;24.30;;;16.10;99.90;;;;;;5049505;28;20424;-73
2021/08/31 06:41:35;;;;;;;31.90;23.33;;;16.10;99.90;;;;;;5066150;28;20233;-73
2021/08/31 06:44:00;;;;;;;28.30;23.50;;;16.10;99.90;;;;;;5049806;28;20186;-72
2021/08/31 06:46:26;;;;;;;34.27;26.60;;;16.10;99.90;;;;;;5049966;28;20985;-73
2021/08/31 06:48:51;;;;;;;34.27;25.97;;;15.90;99.90;;;;;;5059995;28;20197;-71
2021/08/31 06:51:17;;;;;;;32.80;25.57;;;15.90;99.90;;;;;;5069759;28;20205;-72
2021/08/31 06:53:42;;;;;;;31.50;24.07;;;16.10;99.90;;;;;;5053941;28;20822;-73
2021/08/31 06:56:08;;;;;;;34.43;24.47;;;16.10;99.90;;;;;;5054443;28;20201;-72
2021/08/31 06:58:34;;;;;;;34.95;27.58;;;16.20;99.90;;;;;;5063856;28;20415;-72
2021/08/31 07:01:00;;;;;;;33.77;26.17;;;16.10;99.90;;;;;;5053512;28;20199;-71
2021/08/31 07:03:25;;;;;;;38.90;26.37;;;16.20;99.90;;;;;;5051351;28;20555;-72
2021/08/31 07:05:51;;;;;;;36.80;26.40;;;16.30;99.90;;;;;;5044748;28;20206;-73
2021/08/31 07:08:17;;;;;;;35.60;25.97;;;16.40;99.90;;;;;;5073702;28;20188;-73
2021/08/31 07:10:43;;;;;;;35.60;26.23;;;16.50;99.90;;;;;;5074099;28;20602;-72
2021/08/31 07:13:08;;;;;;;37.47;28.60;;;16.60;99.90;;;;;;5053601;28;20199;-73
2021/08/31 07:15:34;;;;;;;48.97;32.10;;;16.60;99.90;;;;;;5054379;28;20208;-72
2021/08/31 07:18:00;;;;;;;43.80;30.33;;;16.40;99.90;;;;;;5035065;28;20190;-72
2021/08/31 07:20:27;;;;;;;42.07;30.13;;;16.30;99.90;;;;;;5054166;28;20610;-72
2021/08/31 07:22:53;;;;;;;46.10;31.93;;;16.10;99.90;;;;;;5053744;28;20423;-72
2021/08/31 07:25:20;;;;;;;42.13;27.57;;;16.00;99.90;;;;;;5052565;28;20428;-72
2021/08/31 07:27:45;;;;;;;43.73;28.73;;;15.90;99.90;;;;;;5053205;28;20466;-72
2021/08/31 07:30:12;;;;;;;44.53;26.53;;;15.70;99.90;;;;;;5057434;28;20443;-72
2021/08/31 07:32:37;;;;;;;42.93;28.83;;;15.80;99.90;;;;;;5065249;28;20186;-72
2021/08/31 07:35:03;;;;;;;44.00;28.70;;;15.60;99.90;;;;;;5035066;28;20439;-72
2021/08/31 07:37:29;;;;;;;41.50;26.57;;;15.60;99.90;;;;;;5054091;28;20194;-71
2021/08/31 07:39:54;;;;;;;41.70;27.17;;;15.40;99.90;;;;;;5054448;28;20887;-71
2021/08/31 07:42:20;;;;;;;41.93;28.50;;;15.30;99.90;;;;;;5055577;28;20268;-74
2021/08/31 07:44:45;;;;;;;49.13;29.67;;;15.30;99.90;;;;;;5053365;28;20185;-74
2021/08/31 07:47:13;;;;;;;52.90;30.20;;;15.50;99.90;;;;;;5050024;28;20272;-72
2021/08/31 07:49:38;;;;;;;57.43;33.10;;;15.50;99.90;;;;;;5053066;28;20217;-72
2021/08/31 07:52:04;;;;;;;61.53;34.53;;;15.50;99.90;;;;;;5031300;28;20460;-71
2021/08/31 07:54:30;;;;;;;58.80;34.97;;;15.30;99.90;;;;;;5051409;28;20182;-72
2021/08/31 07:56:56;;;;;;;62.37;37.60;;;15.30;99.90;;;;;;5053864;28;20183;-72
2021/08/31 07:59:21;;;;;;;63.23;35.60;;;15.30;99.90;;;;;;5052649;28;20412;-74
2021/08/31 08:01:47;;;;;;;63.97;36.40;;;15.40;99.90;;;;;;5069797;28;20212;-73
2021/08/31 08:04:12;;;;;;;63.30;34.87;;;15.30;99.90;;;;;;5067364;28;20239;-73
2021/08/31 08:06:39;;;;;;;60.67;36.27;;;15.40;99.90;;;;;;5052890;28;20201;-73
2021/08/31 08:09:05;;;;;;;54.53;33.00;;;15.40;99.90;;;;;;5051504;28;20217;-73
2021/08/31 08:11:31;;;;;;;57.43;34.90;;;15.30;99.90;;;;;;5066356;28;20526;-73
2021/08/31 08:13:56;;;;;;;59.27;36.27;;;15.30;99.90;;;;;;5071686;28;20358;-73
2021/08/31 08:16:22;;;;;;;61.33;35.07;;;15.40;99.90;;;;;;5061294;28;20212;-73
2021/08/31 08:18:48;;;;;;;61.00;37.10;;;15.50;99.90;;;;;;5051312;28;20237;-72
2021/08/31 08:21:14;;;;;;;61.90;36.67;;;15.60;99.90;;;;;;5051196;28;20878;-73
2021/08/31 08:23:40;;;;;;;57.03;33.40;;;15.50;99.90;;;;;;5068195;28;20484;-72
2021/08/31 08:26:07;;;;;;;53.03;32.63;;;15.60;99.90;;;;;;5053829;28;20456;-72
2021/08/31 08:28:33;;;;;;;52.20;33.37;;;15.70;99.90;;;;;;5059147;28;20181;-73
2021/08/31 08:30:58;;;;;;;50.17;32.80;;;15.60;99.90;;;;;;5062371;28;20474;-73
2021/08/31 08:33:24;;;;;;;50.30;32.20;;;15.60;99.90;;;;;;5057232;28;20178;-73
2021/08/31 08:35:50;;;;;;;46.80;31.97;;;15.60;99.90;;;;;;5069287;28;20199;-73
2021/08/31 08:38:16;;;;;;;51.77;30.73;;;15.60;99.90;;;;;;5066879;28;20519;-72
2021/08/31 08:40:42;;;;;;;48.27;31.33;;;15.60;99.90;;;;;;5038330;28;20679;-73
2021/08/31 08:43:08;;;;;;;48.13;31.07;;;15.70;99.90;;;;;;5053138;28;20437;-74
2021/08/31 08:45:34;;;;;;;50.77;31.50;;;15.70;99.90;;;;;;5051799;28;20220;-74
2021/08/31 08:48:00;;;;;;;46.53;30.87;;;15.80;99.90;;;;;;5056334;28;20186;-73
2021/08/31 08:50:27;;;;;;;49.83;30.10;;;15.80;99.90;;;;;;5071816;28;20473;-73
2021/08/31 08:52:52;;;;;;;48.20;30.20;;;15.90;99.90;;;;;;5043552;28;20440;-73
2021/08/31 08:55:20;;;;;;;47.00;30.40;;;15.90;99.90;;;;;;5052456;28;20463;-73
2021/08/31 08:57:46;;;;;;;48.93;29.43;;;16.00;99.90;;;;;;5057372;28;20239;-73
2021/08/31 09:00:12;;;;;;;44.20;29.37;;;16.10;99.90;;;;;;5053738;28;20436;-72
2021/08/31 09:02:43;;;;;;;44.27;28.40;;;16.20;99.90;;;;;;5071007;28;20185;-73
2021/08/31 09:05:13;;;;;;;40.37;27.80;;;16.30;99.90;;;;;;5059026;28;20531;-72
2021/08/31 09:07:41;;;;;;;40.00;27.10;;;16.40;99.90;;;;;;5051323;28;20456;-73
2021/08/31 09:10:13;;;;;;;37.70;26.53;;;16.40;99.90;;;;;;5034992;28;20432;-72
2021/08/31 09:12:40;;;;;;;38.77;25.87;;;16.50;99.90;;;;;;5051954;28;20452;-73
2021/08/31 09:15:32;;;;;;;41.83;28.17;;;16.60;99.90;;;;;;5052954;28;20424;-73
2021/08/31 09:18:04;;;;;;;40.90;28.07;;;16.70;99.90;;;;;;5066911;28;20943;-72
2021/08/31 09:20:35;;;;;;;40.80;28.07;;;16.80;99.90;;;;;;5050906;28;20429;-74
2021/08/31 09:23:03;;;;;;;37.47;25.97;;;16.90;99.90;;;;;;5061430;28;20489;-72
2021/08/31 09:25:32;;;;;;;34.90;26.37;;;17.00;99.90;;;;;;5065457;28;20412;-72
2021/08/31 09:27:58;;;;;;;32.50;24.10;;;17.10;99.90;;;;;;5052537;28;20541;-72
2021/08/31 09:30:32;;;;;;;32.13;24.40;;;17.10;99.90;;;;;;5037876;28;20439;-72
2021/08/31 09:33:06;;;;;;;35.17;25.30;;;17.20;99.90;;;;;;5041020;28;20456;-73
2021/08/31 09:35:36;;;;;;;30.50;22.87;;;17.20;99.90;;;;;;5049011;28;20407;-73
2021/08/31 09:38:04;;;;;;;27.23;21.70;;;17.40;99.90;;;;;;5053458;28;20510;-73
2021/08/31 09:40:31;;;;;;;32.63;23.00;;;17.40;99.90;;;;;;5049803;28;20452;-73
2021/08/31 09:43:12;;;;;;;31.57;23.50;;;17.60;99.90;;;;;;5046156;28;20437;-72
2021/08/31 09:45:40;;;;;;;30.80;23.90;;;17.70;99.90;;;;;;5050845;28;20423;-72
2021/08/31 09:48:08;;;;;;;29.10;22.97;;;17.60;99.90;;;;;;5050965;28;21035;-72
2021/08/31 09:50:43;;;;;;;27.33;22.30;;;17.50;99.90;;;;;;5052978;28;20448;-73
2021/08/31 09:53:09;;;;;;;27.23;22.37;;;17.50;99.90;;;;;;5038452;28;20796;-73
2021/08/31 09:55:35;;;;;;;27.83;22.37;;;17.70;99.90;;;;;;5052327;28;20505;-73
2021/08/31 09:58:11;;;;;;;24.03;20.33;;;17.90;99.90;;;;;;5051875;28;20170;-73
2021/08/31 10:00:38;;;;;;;25.50;21.53;;;18.10;99.90;;;;;;5053927;28;20445;-74
2021/08/31 10:03:04;;;;;;;22.60;19.20;;;18.10;99.90;;;;;;5039872;28;20451;-73
2021/08/31 10:05:32;;;;;;;23.00;19.20;;;17.90;99.90;;;;;;5065166;28;20760;-73
2021/08/31 10:08:02;;;;;;;22.20;18.63;;;17.80;99.90;;;;;;5032586;28;20182;-74
2021/08/31 10:10:29;;;;;;;22.70;19.37;;;17.70;99.90;;;;;;5054463;28;20439;-73
2021/08/31 10:12:56;;;;;;;22.20;18.90;;;17.80;99.90;;;;;;5046330;28;21035;-73
2021/08/31 10:15:22;;;;;;;21.03;18.63;;;17.70;99.90;;;;;;5061874;28;20427;-73
2021/08/31 10:17:50;;;;;;;19.37;16.90;;;17.80;99.90;;;;;;5031589;28;20498;-74
2021/08/31 10:20:21;;;;;;;18.40;16.30;;;18.10;99.90;;;;;;5050992;28;20821;-74
2021/08/31 10:22:47;;;;;;;19.03;17.03;;;18.30;99.90;;;;;;5040728;28;20456;-73
2021/08/31 10:25:13;;;;;;;20.93;17.47;;;18.30;99.90;;;;;;5049572;28;20420;-73
2021/08/31 10:27:41;;;;;;;19.57;16.77;;;18.30;99.90;;;;;;5048716;28;20496;-73
2021/08/31 10:30:29;;;;;;;18.97;15.77;;;18.20;99.90;;;;;;5041911;28;20500;-74
2021/08/31 10:33:00;;;;;;;17.10;15.30;;;18.30;99.90;;;;;;5039612;28;20527;-75
2021/08/31 10:35:32;;;;;;;19.87;17.63;;;18.50;99.90;;;;;;5049745;28;21117;-73
2021/08/31 10:37:59;;;;;;;15.17;13.67;;;18.50;99.90;;;;;;5032297;28;21098;-75
2021/08/31 10:40:55;;;;;;;13.90;12.60;;;18.70;99.90;;;;;;5023439;28;20444;-73
2021/08/31 10:43:21;;;;;;;14.87;13.33;;;18.80;99.90;;;;;;4972136;28;20444;-73
2021/08/31 10:45:55;;;;;;;14.90;13.30;;;18.80;99.90;;;;;;4972764;28;20478;-73
2021/08/31 10:48:24;;;;;;;12.73;11.60;;;18.80;99.90;;;;;;4971689;28;20474;-73
2021/08/31 10:50:58;;;;;;;15.70;14.23;;;18.70;99.90;;;;;;4972978;28;20530;-73
2021/08/31 10:53:40;;;;;;;14.30;12.90;;;18.70;99.90;;;;;;4973414;28;20443;-73
2021/08/31 10:56:23;;;;;;;14.53;13.13;;;18.60;99.90;;;;;;4969927;28;20502;-73
2021/08/31 10:58:51;;;;;;;14.83;12.97;;;18.60;99.90;;;;;;4970708;28;20475;-73
2021/08/31 11:01:19;;;;;;;14.07;12.67;;;18.40;99.90;;;;;;4984801;28;21083;-74
2021/08/31 11:03:45;;;;;;;12.67;11.37;;;18.50;99.90;;;;;;4973993;28;20451;-73
2021/08/31 11:06:26;;;;;;;11.17;10.00;;;18.60;99.90;;;;;;4975096;28;21429;-73
2021/08/31 11:09:16;;;;;;;12.07;10.83;;;18.70;99.90;;;;;;4980899;28;20482;-74
2021/08/31 11:11:45;;;;;;;13.37;11.10;;;18.80;99.90;;;;;;4987687;28;20609;-72
2021/08/31 11:14:13;;;;;;;12.53;11.30;;;19.00;99.90;;;;;;4988321;28;20481;-73
2021/08/31 11:16:39;;;;;;;12.80;11.40;;;19.20;99.90;;;;;;4970415;28;20531;-71
2021/08/31 11:19:23;;;;;;;15.53;11.90;;;19.30;99.90;;;;;;4997766;28;20898;-73
2021/08/31 11:21:51;;;;;;;11.97;10.83;;;19.30;99.90;;;;;;5061047;28;20467;-74
2021/08/31 11:24:16;;;;;;;13.50;12.20;;;19.30;99.90;;;;;;5052038;28;20431;-73
2021/08/31 11:26:42;;;;;;;14.70;13.40;;;19.30;99.90;;;;;;5052453;28;20464;-73
2021/08/31 11:29:10;;;;;;;14.23;12.77;;;19.30;99.90;;;;;;5052695;28;20201;-73
2021/08/31 11:31:36;;;;;;;14.30;12.90;;;19.40;99.90;;;;;;5051850;28;20270;-73
2021/08/31 11:34:03;;;;;;;13.20;11.80;;;19.30;99.90;;;;;;5044810;28;20448;-73
2021/08/31 11:36:29;;;;;;;15.50;13.90;;;19.30;99.90;;;;;;5053069;28;20526;-73
2021/08/31 11:38:57;;;;;;;15.13;11.47;;;19.30;99.90;;;;;;5057065;28;20518;-73
2021/08/31 11:41:26;;;;;;;13.80;12.40;;;19.30;99.90;;;;;;5041106;28;20198;-72
2021/08/31 11:43:57;;;;;;;12.70;11.50;;;19.30;99.90;;;;;;5059641;28;20940;-72
2021/08/31 11:46:26;;;;;;;12.07;10.87;;;19.30;99.90;;;;;;5050384;28;20895;-73
2021/08/31 11:49:25;;;;;;;10.53;9.53;;;19.30;99.90;;;;;;5044772;28;20425;-73
2021/08/31 11:51:57;;;;;;;11.27;10.03;;;19.30;99.90;;;;;;4987027;28;20878;-73
2021/08/31 11:54:23;;;;;;;10.90;9.90;;;19.30;99.90;;;;;;4991245;28;20429;-73
2021/08/31 11:56:51;;;;;;;11.00;10.00;;;19.50;99.90;;;;;;4991611;28;20415;-74
2021/08/31 11:59:43;;;;;;;9.33;8.53;;;19.40;99.90;;;;;;4991462;28;20460;-73
2021/08/31 12:02:30;;;;;;;9.27;8.27;;;19.50;99.90;;;;;;4992797;28;21020;-74
2021/08/31 12:04:56;;;;;;;9.03;8.20;;;19.60;99.90;;;;;;4992487;28;20431;-74
2021/08/31 12:07:23;;;;;;;10.10;9.03;;;19.60;99.70;;;;;;4991808;28;20477;-73
2021/08/31 12:09:51;;;;;;;9.63;8.50;;;19.60;99.90;;;;;;4990447;28;20466;-74
2021/08/31 12:12:17;;;;;;;10.90;9.87;;;19.70;99.90;;;;;;4992561;28;20955;-74
2021/08/31 12:14:47;;;;;;;9.70;8.83;;;19.70;99.90;;;;;;4975994;28;20833;-74
2021/08/31 12:17:13;;;;;;;11.17;10.17;;;19.70;99.90;;;;;;4991705;28;20423;-73
2021/08/31 12:19:45;;;;;;;10.23;9.20;;;19.80;99.90;;;;;;4991118;28;20893;-72
2021/08/31 12:22:14;;;;;;;11.50;10.40;;;19.70;99.90;;;;;;4991016;28;20459;-73
2021/08/31 12:24:42;;;;;;;14.53;8.97;;;19.90;99.90;;;;;;4974142;28;20518;-73
2021/08/31 12:27:14;;;;;;;10.23;9.23;;;19.80;99.90;;;;;;5005851;28;20601;-73
2021/08/31 12:29:56;;;;;;;8.20;7.47;;;19.80;99.90;;;;;;5064433;28;21003;-73
2021/08/31 12:32:29;;;;;;;8.40;7.47;;;19.70;99.30;;;;;;5032482;28;20484;-72
2021/08/31 12:35:21;;;;;;;8.60;7.50;;;19.80;99.00;;;;;;5052811;28;20431;-73
2021/08/31 12:37:46;;;;;;;7.50;6.63;;;19.80;99.30;;;;;;5054924;28;20425;-72
2021/08/31 12:40:19;;;;;;;7.10;6.40;;;19.90;98.60;;;;;;5056506;28;20454;-72
2021/08/31 12:42:47;;;;;;;8.30;7.00;;;20.00;98.80;;;;;;5041067;28;20185;-72
2021/08/31 12:45:13;;;;;;;8.43;7.23;;;20.10;98.70;;;;;;5052073;28;20416;-72
2021/08/31 12:47:54;;;;;;;8.73;7.93;;;20.20;98.60;;;;;;5052223;28;20975;-73
2021/08/31 12:50:20;;;;;;;9.10;7.60;;;20.30;99.20;;;;;;5014469;28;20441;-72
2021/08/31 12:53:00;;;;;;;8.57;7.77;;;20.30;99.50;;;;;;5029238;28;20424;-72
2021/08/31 12:55:29;;;;;;;8.13;7.40;;;20.40;99.70;;;;;;5032354;28;21078;-73
2021/08/31 12:58:15;;;;;;;8.47;6.80;;;20.30;99.70;;;;;;5067603;28;20464;-73
2021/08/31 13:00:41;;;;;;;7.43;6.70;;;20.40;99.50;;;;;;5034588;28;20447;-73
2021/08/31 13:03:06;;;;;;;7.97;6.80;;;20.40;99.20;;;;;;5052630;28;20413;-73
2021/08/31 13:05:32;;;;;;;10.10;7.47;;;20.50;99.00;;;;;;5034969;28;20615;-73
2021/08/31 13:08:04;;;;;;;7.93;6.93;;;20.40;99.00;;;;;;5053008;28;20205;-73
2021/08/31 13:10:30;;;;;;;8.03;6.93;;;20.50;99.30;;;;;;5065618;28;20520;-72
2021/08/31 13:12:56;;;;;;;9.73;7.40;;;20.50;98.20;;;;;;5034976;28;20443;-73
2021/08/31 13:15:21;;;;;;;7.73;6.93;;;20.60;97.70;;;;;;5053429;28;20421;-73
2021/08/31 13:17:47;;;;;;;7.97;7.20;;;20.70;98.10;;;;;;5053934;28;20178;-73
2021/08/31 13:20:12;;;;;;;8.03;7.17;;;20.90;98.20;;;;;;5067249;28;20699;-73
2021/08/31 13:22:38;;;;;;;7.67;6.97;;;20.90;98.50;;;;;;5037778;28;20204;-71
2021/08/31 13:25:07;;;;;;;8.03;7.23;;;20.90;98.30;;;;;;5052379;28;20170;-72
2021/08/31 13:27:32;;;;;;;7.50;6.80;;;20.80;97.30;;;;;;5067596;28;20594;-73
2021/08/31 13:29:58;;;;;;;7.70;7.00;;;20.80;97.90;;;;;;5072020;28;20438;-72
2021/08/31 13:32:23;;;;;;;8.00;6.90;;;20.60;98.40;;;;;;5040913;28;20186;-73
2021/08/31 13:34:49;;;;;;;7.33;6.63;;;20.50;98.30;;;;;;5052114;28;20538;-73
2021/08/31 13:37:14;;;;;;;7.73;6.93;;;20.60;98.60;;;;;;5051920;28;20182;-73
2021/08/31 13:39:40;;;;;;;7.53;6.83;;;20.70;98.50;;;;;;5032597;28;20635;-74
2021/08/31 13:42:05;;;;;;;7.87;6.20;;;20.90;97.90;;;;;;5068581;28;20289;-73
2021/08/31 13:44:32;;;;;;;7.97;7.27;;;21.00;98.00;;;;;;5050515;28;20213;-73
2021/08/31 13:46:58;;;;;;;7.60;6.80;;;21.20;97.60;;;;;;5033585;28;20205;-73
2021/08/31 13:49:24;;;;;;;7.00;6.40;;;21.40;97.60;;;;;;5051767;28;20412;-73
2021/08/31 13:51:51;;;;;;;6.20;5.60;;;21.50;96.00;;;;;;5052129;28;20214;-74
2021/08/31 13:54:16;;;;;;;7.00;6.27;;;21.50;95.70;;;;;;5055755;28;20177;-73
2021/08/31 13:56:42;;;;;;;8.07;7.37;;;21.70;96.10;;;;;;5052575;28;20952;-73
2021/08/31 13:59:08;;;;;;;10.03;6.23;;;21.90;96.00;;;;;;5050787;28;20670;-74
2021/08/31 14:01:33;;;;;;;6.57;5.97;;;21.80;96.40;;;;;;5043288;28;20268;-74
2021/08/31 14:04:02;;;;;;;6.10;5.60;;;21.80;95.70;;;;;;5051342;28;20249;-73
2021/08/31 14:06:27;;;;;;;7.10;6.50;;;21.90;95.20;;;;;;5051200;28;20643;-73
2021/08/31 14:08:53;;;;;;;6.40;5.80;;;21.90;95.20;;;;;;5050854;28;20419;-74
2021/08/31 14:11:18;;;;;;;6.40;5.77;;;22.00;95.10;;;;;;5050261;28;20200;-73
2021/08/31 14:13:44;;;;;;;6.23;5.63;;;22.20;95.00;;;;;;5051325;28;20188;-73
2021/08/31 14:16:09;;;;;;;6.07;5.50;;;22.20;93.60;;;;;;5052308;28;20182;-74
2021/08/31 14:18:35;;;;;;;6.83;6.23;;;22.20;93.90;;;;;;5052505;28;20186;-74
2021/08/31 14:21:00;;;;;;;6.43;5.73;;;22.30;94.40;;;;;;5052093;28;20206;-74
2021/08/31 14:23:26;;;;;;;5.87;5.30;;;22.30;94.00;;;;;;5053080;28;20178;-73
2021/08/31 14:25:52;;;;;;;5.80;5.30;;;22.30;94.60;;;;;;5052221;28;20180;-74
2021/08/31 14:28:18;;;;;;;6.20;5.60;;;22.50;94.40;;;;;;5052692;28;20212;-74
2021/08/31 14:30:43;;;;;;;6.53;6.00;;;22.90;94.10;;;;;;5053333;28;20186;-73
2021/08/31 14:33:09;;;;;;;6.30;5.70;;;22.90;93.00;;;;;;5064628;28;21294;-73
2021/08/31 14:35:35;;;;;;;6.67;5.83;;;22.80;93.50;;;;;;5056277;28;20287;-73
2021/08/31 14:38:00;;;;;;;6.13;5.53;;;22.90;94.20;;;;;;5052352;28;21004;-73
2021/08/31 14:40:26;;;;;;;6.67;6.00;;;22.60;93.60;;;;;;5050993;28;20607;-73
2021/08/31 14:42:51;;;;;;;10.80;6.07;;;22.50;94.50;;;;;;5056737;28;20209;-73
2021/08/31 14:45:17;;;;;;;5.87;5.37;;;22.40;94.70;;;;;;5033808;28;20197;-73
2021/08/31 14:47:43;;;;;;;7.73;5.50;;;22.30;94.80;;;;;;5051583;28;20246;-73
2021/08/31 14:50:10;;;;;;;5.73;5.23;;;22.10;94.40;;;;;;5050915;28;20209;-74
2021/08/31 14:52:36;;;;;;;6.03;5.43;;;22.30;95.00;;;;;;5051700;28;20631;-74
2021/08/31 14:55:02;;;;;;;6.00;5.17;;;22.40;93.70;;;;;;5032953;28;20428;-73
2021/08/31 14:57:28;;;;;;;6.77;5.40;;;22.50;93.20;;;;;;5052150;28;20448;-73
2021/08/31 14:59:54;;;;;;;5.87;5.37;;;22.60;93.70;;;;;;5052576;28;20767;-74
2021/08/31 15:02:19;;;;;;;5.30;4.80;;;22.60;93.70;;;;;;5051527;28;20182;-73
2021/08/31 15:04:45;;;;;;;6.63;6.00;;;22.80;93.50;;;;;;5060260;28;20189;-74
2021/08/31 15:07:10;;;;;;;6.50;5.90;;;22.80;93.30;;;;;;5049000;28;20209;-73
2021/08/31 15:09:36;;;;;;;5.97;5.37;;;22.80;94.00;;;;;;5032604;28;20280;-73
2021/08/31 15:12:02;;;;;;;5.77;5.20;;;23.00;93.90;;;;;;5061538;28;20212;-73
2021/08/31 15:14:27;;;;;;;6.87;5.20;;;23.20;93.90;;;;;;5052459;28;20178;-73
2021/08/31 15:16:53;;;;;;;6.30;4.97;;;23.30;93.40;;;;;;5030365;28;20213;-73
2021/08/31 15:19:18;;;;;;;5.40;4.90;;;23.50;93.00;;;;;;5045569;28;20178;-73
2021/08/31 15:21:44;;;;;;;6.40;5.80;;;23.50;92.70;;;;;;5056617;28;20555;-73
2021/08/31 15:24:10;;;;;;;7.37;5.30;;;23.60;92.30;;;;;;5062180;28;20691;-73
2021/08/31 15:26:39;;;;;;;5.90;5.40;;;23.30;92.10;;;;;;5045370;28;20236;-73
2021/08/31 15:29:06;;;;;;;5.70;5.10;;;23.20;92.60;;;;;;5035095;28;20420;-73
2021/08/31 15:31:33;;;;;;;7.30;5.40;;;23.20;92.60;;;;;;5038224;28;20457;-72
2021/08/31 15:33:59;;;;;;;5.70;5.20;;;23.20;93.30;;;;;;5060371;28;20421;-73
2021/08/31 15:36:27;;;;;;;6.70;5.00;;;23.10;91.60;;;;;;5033687;28;20782;-72
2021/08/31 15:39:00;;;;;;;5.40;4.90;;;23.00;91.60;;;;;;5033897;28;20413;-72
2021/08/31 15:41:26;;;;;;;7.67;5.43;;;23.00;92.20;;;;;;5034280;28;20552;-72
2021/08/31 15:43:52;;;;;;;5.07;4.67;;;23.00;91.90;;;;;;5042283;28;20953;-73
2021/08/31 15:46:18;;;;;;;7.07;6.23;;;22.70;92.50;;;;;;5055081;28;20464;-73